sensor_id;sensor_type;location;lat;lon;timestamp;P1;durP1;ratioP1;P2;durP2;ratioP2
73951;SDS011;62304;47.662;18.324;2022-09-09T00:05:00;3.00;;;1.27;;
73951;SDS011;62304;47.662;18.324;2022-09-09T00:12:23;3.22;;;1.20;;
73951;SDS011;62304;47.662;18.324;2022-09-09T00:22:19;3.55;;;1.20;;
73951;SDS011;62304;47.662;18.324;2022-09-09T00:25:29;3.70;;;1.30;;
73951;SDS011;62304;47.662;18.324;2022-09-09T00:29:05;3.20;;;1.20;;
73951;SDS011;62304;47.662;18.324;2022-09-09T00:32:22;3.60;;;1.40;;
73951;SDS011;62304;47.662;18.324;2022-09-09T00:35:31;3.70;;;1.60;;
73951;SDS011;62304;47.662;18.324;2022-09-09T00:38:45;3.20;;;1.50;;
73951;SDS011;62304;47.662;18.324;2022-09-09T00:52:40;3.93;;;1.60;;
73951;SDS011;62304;47.662;18.324;2022-09-09T00:59:12;3.72;;;1.80;;
73951;SDS011;62304;47.662;18.324;2022-09-09T01:02:43;4.50;;;1.80;;
73951;SDS011;62304;47.662;18.324;2022-09-09T01:13:00;4.40;;;1.70;;
73951;SDS011;62304;47.662;18.324;2022-09-09T01:16:10;3.45;;;1.50;;
73951;SDS011;62304;47.662;18.324;2022-09-09T01:19:18;3.55;;;1.48;;
73951;SDS011;62304;47.662;18.324;2022-09-09T01:22:33;4.47;;;1.90;;
73951;SDS011;62304;47.662;18.324;2022-09-09T01:29:15;3.30;;;1.40;;
73951;SDS011;62304;47.662;18.324;2022-09-09T01:36:10;4.90;;;1.70;;
73951;SDS011;62304;47.662;18.324;2022-09-09T01:39:26;4.40;;;1.93;;
73951;SDS011;62304;47.662;18.324;2022-09-09T01:42:30;4.07;;;1.60;;
73951;SDS011;62304;47.662;18.324;2022-09-09T01:45:34;6.55;;;2.40;;
73951;SDS011;62304;47.662;18.324;2022-09-09T01:48:37;6.22;;;2.25;;
73951;SDS011;62304;47.662;18.324;2022-09-09T01:51:41;5.20;;;1.80;;
73951;SDS011;62304;47.662;18.324;2022-09-09T01:54:46;4.60;;;2.10;;
73951;SDS011;62304;47.662;18.324;2022-09-09T01:57:56;5.70;;;2.20;;
73951;SDS011;62304;47.662;18.324;2022-09-09T02:07:47;3.97;;;1.70;;
73951;SDS011;62304;47.662;18.324;2022-09-09T02:10:55;4.03;;;1.70;;
73951;SDS011;62304;47.662;18.324;2022-09-09T02:14:18;3.70;;;1.73;;
73951;SDS011;62304;47.662;18.324;2022-09-09T02:17:28;3.40;;;1.60;;
73951;SDS011;62304;47.662;18.324;2022-09-09T02:20:35;5.80;;;1.80;;
73951;SDS011;62304;47.662;18.324;2022-09-09T02:23:41;3.70;;;1.87;;
73951;SDS011;62304;47.662;18.324;2022-09-09T02:26:46;6.70;;;1.83;;
73951;SDS011;62304;47.662;18.324;2022-09-09T02:29:54;3.87;;;1.90;;
73951;SDS011;62304;47.662;18.324;2022-09-09T02:33:02;5.43;;;2.08;;
73951;SDS011;62304;47.662;18.324;2022-09-09T02:36:11;5.30;;;2.40;;
73951;SDS011;62304;47.662;18.324;2022-09-09T02:39:18;5.35;;;2.20;;
73951;SDS011;62304;47.662;18.324;2022-09-09T02:42:24;4.27;;;1.97;;
73951;SDS011;62304;47.662;18.324;2022-09-09T02:45:31;5.30;;;1.90;;
73951;SDS011;62304;47.662;18.324;2022-09-09T02:48:55;4.68;;;2.37;;
73951;SDS011;62304;47.662;18.324;2022-09-09T02:52:05;5.53;;;2.40;;
73951;SDS011;62304;47.662;18.324;2022-09-09T02:55:18;5.30;;;2.65;;
73951;SDS011;62304;47.662;18.324;2022-09-09T02:58:32;5.10;;;2.67;;
73951;SDS011;62304;47.662;18.324;2022-09-09T03:01:36;5.60;;;2.80;;
73951;SDS011;62304;47.662;18.324;2022-09-09T03:04:39;5.07;;;2.97;;
73951;SDS011;62304;47.662;18.324;2022-09-09T03:07:45;6.72;;;3.33;;
73951;SDS011;62304;47.662;18.324;2022-09-09T03:10:50;5.53;;;3.35;;
73951;SDS011;62304;47.662;18.324;2022-09-09T03:13:53;7.13;;;3.57;;
73951;SDS011;62304;47.662;18.324;2022-09-09T03:16:59;6.40;;;3.90;;
73951;SDS011;62304;47.662;18.324;2022-09-09T03:20:04;6.50;;;3.45;;
73951;SDS011;62304;47.662;18.324;2022-09-09T03:23:10;6.12;;;3.15;;
73951;SDS011;62304;47.662;18.324;2022-09-09T03:26:17;5.40;;;2.90;;
73951;SDS011;62304;47.662;18.324;2022-09-09T03:29:20;6.40;;;3.37;;
73951;SDS011;62304;47.662;18.324;2022-09-09T03:32:25;6.63;;;3.73;;
73951;SDS011;62304;47.662;18.324;2022-09-09T03:35:29;6.97;;;3.10;;
73951;SDS011;62304;47.662;18.324;2022-09-09T03:38:32;8.70;;;3.47;;
73951;SDS011;62304;47.662;18.324;2022-09-09T03:41:36;5.45;;;3.00;;
73951;SDS011;62304;47.662;18.324;2022-09-09T03:44:40;6.47;;;3.23;;
73951;SDS011;62304;47.662;18.324;2022-09-09T03:47:44;6.63;;;3.60;;
73951;SDS011;62304;47.662;18.324;2022-09-09T03:50:48;8.15;;;3.55;;
73951;SDS011;62304;47.662;18.324;2022-09-09T03:53:52;6.03;;;3.50;;
73951;SDS011;62304;47.662;18.324;2022-09-09T03:56:57;6.07;;;3.37;;
73951;SDS011;62304;47.662;18.324;2022-09-09T04:00:03;7.83;;;3.60;;
73951;SDS011;62304;47.662;18.324;2022-09-09T04:03:17;6.20;;;3.10;;
73951;SDS011;62304;47.662;18.324;2022-09-09T04:06:20;8.35;;;3.72;;
73951;SDS011;62304;47.662;18.324;2022-09-09T04:09:23;10.45;;;3.75;;
73951;SDS011;62304;47.662;18.324;2022-09-09T04:12:26;12.27;;;4.55;;
73951;SDS011;62304;47.662;18.324;2022-09-09T04:15:30;8.47;;;3.70;;
73951;SDS011;62304;47.662;18.324;2022-09-09T04:18:34;7.53;;;3.63;;
73951;SDS011;62304;47.662;18.324;2022-09-09T04:21:37;4.97;;;2.90;;
73951;SDS011;62304;47.662;18.324;2022-09-09T04:24:40;8.13;;;3.65;;
73951;SDS011;62304;47.662;18.324;2022-09-09T04:27:53;5.57;;;3.05;;
73951;SDS011;62304;47.662;18.324;2022-09-09T04:31:03;7.83;;;3.63;;
73951;SDS011;62304;47.662;18.324;2022-09-09T04:34:08;7.23;;;3.17;;
73951;SDS011;62304;47.662;18.324;2022-09-09T04:37:11;6.07;;;3.12;;
73951;SDS011;62304;47.662;18.324;2022-09-09T04:40:15;11.48;;;3.85;;
73951;SDS011;62304;47.662;18.324;2022-09-09T04:43:18;6.35;;;3.45;;
73951;SDS011;62304;47.662;18.324;2022-09-09T04:46:21;8.20;;;3.93;;
73951;SDS011;62304;47.662;18.324;2022-09-09T04:49:28;7.40;;;3.70;;
73951;SDS011;62304;47.662;18.324;2022-09-09T04:52:34;7.32;;;3.97;;
73951;SDS011;62304;47.662;18.324;2022-09-09T04:55:38;6.35;;;3.87;;
73951;SDS011;62304;47.662;18.324;2022-09-09T04:58:41;6.60;;;3.78;;
73951;SDS011;62304;47.662;18.324;2022-09-09T05:01:48;6.47;;;3.53;;
73951;SDS011;62304;47.662;18.324;2022-09-09T05:04:52;6.57;;;3.77;;
73951;SDS011;62304;47.662;18.324;2022-09-09T05:08:03;7.18;;;4.03;;
73951;SDS011;62304;47.662;18.324;2022-09-09T05:14:26;7.06;;;4.60;;
73951;SDS011;62304;47.662;18.324;2022-09-09T05:17:30;7.60;;;4.57;;
73951;SDS011;62304;47.662;18.324;2022-09-09T05:20:36;7.95;;;4.50;;
73951;SDS011;62304;47.662;18.324;2022-09-09T05:23:38;6.97;;;4.43;;
73951;SDS011;62304;47.662;18.324;2022-09-09T05:26:41;7.35;;;4.30;;
73951;SDS011;62304;47.662;18.324;2022-09-09T05:29:46;7.07;;;4.50;;
73951;SDS011;62304;47.662;18.324;2022-09-09T05:32:49;8.80;;;4.30;;
73951;SDS011;62304;47.662;18.324;2022-09-09T05:35:59;8.80;;;4.95;;
73951;SDS011;62304;47.662;18.324;2022-09-09T05:39:04;6.97;;;4.47;;
73951;SDS011;62304;47.662;18.324;2022-09-09T05:42:07;9.85;;;4.75;;
73951;SDS011;62304;47.662;18.324;2022-09-09T05:45:10;8.05;;;4.70;;
73951;SDS011;62304;47.662;18.324;2022-09-09T05:48:16;8.98;;;5.15;;
73951;SDS011;62304;47.662;18.324;2022-09-09T05:51:21;7.68;;;4.40;;
73951;SDS011;62304;47.662;18.324;2022-09-09T05:54:28;9.93;;;5.33;;
73951;SDS011;62304;47.662;18.324;2022-09-09T05:57:31;7.93;;;4.72;;
73951;SDS011;62304;47.662;18.324;2022-09-09T06:00:34;7.28;;;4.90;;
73951;SDS011;62304;47.662;18.324;2022-09-09T06:03:38;7.00;;;4.75;;
73951;SDS011;62304;47.662;18.324;2022-09-09T06:06:42;7.37;;;4.90;;
73951;SDS011;62304;47.662;18.324;2022-09-09T06:09:46;9.07;;;4.87;;
73951;SDS011;62304;47.662;18.324;2022-09-09T06:12:51;8.07;;;4.78;;
73951;SDS011;62304;47.662;18.324;2022-09-09T06:15:56;11.68;;;4.68;;
73951;SDS011;62304;47.662;18.324;2022-09-09T06:19:01;8.40;;;4.85;;
73951;SDS011;62304;47.662;18.324;2022-09-09T06:22:06;8.10;;;4.78;;
73951;SDS011;62304;47.662;18.324;2022-09-09T06:25:10;7.50;;;4.80;;
73951;SDS011;62304;47.662;18.324;2022-09-09T06:28:15;8.18;;;4.55;;
73951;SDS011;62304;47.662;18.324;2022-09-09T06:31:19;8.10;;;4.87;;
73951;SDS011;62304;47.662;18.324;2022-09-09T06:34:31;7.53;;;4.72;;
73951;SDS011;62304;47.662;18.324;2022-09-09T06:37:34;7.55;;;4.60;;
73951;SDS011;62304;47.662;18.324;2022-09-09T06:40:37;6.90;;;4.53;;
73951;SDS011;62304;47.662;18.324;2022-09-09T06:43:40;8.13;;;4.43;;
73951;SDS011;62304;47.662;18.324;2022-09-09T06:46:45;6.57;;;4.35;;
73951;SDS011;62304;47.662;18.324;2022-09-09T06:49:52;6.18;;;4.30;;
73951;SDS011;62304;47.662;18.324;2022-09-09T06:52:55;6.62;;;4.20;;
73951;SDS011;62304;47.662;18.324;2022-09-09T06:56:02;6.17;;;4.00;;
73951;SDS011;62304;47.662;18.324;2022-09-09T06:59:25;7.57;;;4.70;;
73951;SDS011;62304;47.662;18.324;2022-09-09T07:02:29;6.78;;;4.10;;
73951;SDS011;62304;47.662;18.324;2022-09-09T07:05:32;7.15;;;3.85;;
73951;SDS011;62304;47.662;18.324;2022-09-09T07:08:35;6.87;;;3.90;;
73951;SDS011;62304;47.662;18.324;2022-09-09T07:11:40;5.87;;;3.70;;
73951;SDS011;62304;47.662;18.324;2022-09-09T07:14:46;4.90;;;3.40;;
73951;SDS011;62304;47.662;18.324;2022-09-09T07:17:49;5.50;;;3.47;;
73951;SDS011;62304;47.662;18.324;2022-09-09T07:20:53;7.62;;;3.62;;
73951;SDS011;62304;47.662;18.324;2022-09-09T07:23:57;7.90;;;3.30;;
73951;SDS011;62304;47.662;18.324;2022-09-09T07:27:00;5.13;;;3.40;;
73951;SDS011;62304;47.662;18.324;2022-09-09T07:30:06;6.75;;;3.50;;
73951;SDS011;62304;47.662;18.324;2022-09-09T07:33:09;6.22;;;3.28;;
73951;SDS011;62304;47.662;18.324;2022-09-09T07:39:16;5.95;;;3.40;;
73951;SDS011;62304;47.662;18.324;2022-09-09T07:42:20;9.40;;;3.80;;
73951;SDS011;62304;47.662;18.324;2022-09-09T07:45:23;7.45;;;3.50;;
73951;SDS011;62304;47.662;18.324;2022-09-09T07:48:27;6.43;;;3.50;;
73951;SDS011;62304;47.662;18.324;2022-09-09T07:51:31;5.32;;;3.58;;
73951;SDS011;62304;47.662;18.324;2022-09-09T07:54:37;13.45;;;4.10;;
73951;SDS011;62304;47.662;18.324;2022-09-09T07:57:40;7.57;;;3.20;;
73951;SDS011;62304;47.662;18.324;2022-09-09T08:00:43;8.32;;;3.50;;
73951;SDS011;62304;47.662;18.324;2022-09-09T08:03:47;6.68;;;3.50;;
73951;SDS011;62304;47.662;18.324;2022-09-09T08:06:58;5.40;;;3.30;;
73951;SDS011;62304;47.662;18.324;2022-09-09T08:10:03;4.97;;;3.75;;
73951;SDS011;62304;47.662;18.324;2022-09-09T08:13:08;7.37;;;3.70;;
73951;SDS011;62304;47.662;18.324;2022-09-09T08:16:25;4.30;;;2.95;;
73951;SDS011;62304;47.662;18.324;2022-09-09T08:19:30;4.00;;;2.67;;
73951;SDS011;62304;47.662;18.324;2022-09-09T08:22:35;5.68;;;2.70;;
73951;SDS011;62304;47.662;18.324;2022-09-09T08:25:40;5.80;;;3.00;;
73951;SDS011;62304;47.662;18.324;2022-09-09T08:28:43;5.70;;;2.80;;
73951;SDS011;62304;47.662;18.324;2022-09-09T08:31:49;7.05;;;3.20;;
73951;SDS011;62304;47.662;18.324;2022-09-09T08:34:57;8.30;;;2.53;;
73951;SDS011;62304;47.662;18.324;2022-09-09T08:38:03;5.45;;;2.25;;
73951;SDS011;62304;47.662;18.324;2022-09-09T08:45:13;4.93;;;2.70;;
73951;SDS011;62304;47.662;18.324;2022-09-09T08:51:49;4.75;;;2.37;;
73951;SDS011;62304;47.662;18.324;2022-09-09T09:08:22;3.80;;;2.10;;
73951;SDS011;62304;47.662;18.324;2022-09-09T09:11:48;3.12;;;1.98;;
73951;SDS011;62304;47.662;18.324;2022-09-09T09:14:54;4.17;;;2.10;;
73951;SDS011;62304;47.662;18.324;2022-09-09T09:17:59;3.60;;;2.00;;
73951;SDS011;62304;47.662;18.324;2022-09-09T09:24:16;3.17;;;1.58;;
73951;SDS011;62304;47.662;18.324;2022-09-09T09:27:34;2.83;;;1.45;;
73951;SDS011;62304;47.662;18.324;2022-09-09T09:30:44;7.07;;;2.03;;
73951;SDS011;62304;47.662;18.324;2022-09-09T09:33:57;5.05;;;2.00;;
73951;SDS011;62304;47.662;18.324;2022-09-09T09:37:01;5.65;;;1.80;;
73951;SDS011;62304;47.662;18.324;2022-09-09T09:40:18;3.92;;;1.80;;
73951;SDS011;62304;47.662;18.324;2022-09-09T09:43:24;3.00;;;1.50;;
73951;SDS011;62304;47.662;18.324;2022-09-09T09:46:32;2.80;;;1.47;;
73951;SDS011;62304;47.662;18.324;2022-09-09T09:49:37;3.12;;;1.50;;
73951;SDS011;62304;47.662;18.324;2022-09-09T09:52:40;2.92;;;1.50;;
73951;SDS011;62304;47.662;18.324;2022-09-09T09:56:25;3.55;;;1.48;;
73951;SDS011;62304;47.662;18.324;2022-09-09T09:59:22;4.47;;;1.60;;
73951;SDS011;62304;47.662;18.324;2022-09-09T10:02:42;2.87;;;1.70;;
73951;SDS011;62304;47.662;18.324;2022-09-09T10:05:47;4.33;;;2.00;;
73951;SDS011;62304;47.662;18.324;2022-09-09T10:08:52;3.10;;;1.75;;
73951;SDS011;62304;47.662;18.324;2022-09-09T10:12:07;2.92;;;1.52;;
73951;SDS011;62304;47.662;18.324;2022-09-09T10:33:01;2.90;;;1.70;;
73951;SDS011;62304;47.662;18.324;2022-09-09T10:36:20;8.05;;;2.17;;
73951;SDS011;62304;47.662;18.324;2022-09-09T10:39:35;3.70;;;1.60;;
73951;SDS011;62304;47.662;18.324;2022-09-09T10:42:44;3.45;;;1.58;;
73951;SDS011;62304;47.662;18.324;2022-09-09T10:49:12;2.83;;;1.35;;
73951;SDS011;62304;47.662;18.324;2022-09-09T10:55:53;3.60;;;1.80;;
73951;SDS011;62304;47.662;18.324;2022-09-09T10:59:12;3.65;;;1.52;;
73951;SDS011;62304;47.662;18.324;2022-09-09T11:02:29;2.80;;;1.80;;
73951;SDS011;62304;47.662;18.324;2022-09-09T11:05:38;2.97;;;1.70;;
73951;SDS011;62304;47.662;18.324;2022-09-09T11:08:45;3.40;;;1.55;;
73951;SDS011;62304;47.662;18.324;2022-09-09T11:11:58;3.10;;;1.53;;
73951;SDS011;62304;47.662;18.324;2022-09-09T11:15:13;3.10;;;1.50;;
73951;SDS011;62304;47.662;18.324;2022-09-09T11:18:22;4.05;;;1.70;;
73951;SDS011;62304;47.662;18.324;2022-09-09T11:21:30;4.18;;;1.90;;
73951;SDS011;62304;47.662;18.324;2022-09-09T11:24:40;3.28;;;1.90;;
73951;SDS011;62304;47.662;18.324;2022-09-09T11:31:17;4.43;;;1.83;;
73951;SDS011;62304;47.662;18.324;2022-09-09T11:41:54;3.25;;;1.90;;
73951;SDS011;62304;47.662;18.324;2022-09-09T11:45:30;3.23;;;1.67;;
73951;SDS011;62304;47.662;18.324;2022-09-09T11:51:40;3.58;;;1.50;;
73951;SDS011;62304;47.662;18.324;2022-09-09T11:54:46;4.82;;;1.85;;
73951;SDS011;62304;47.662;18.324;2022-09-09T11:57:59;5.68;;;1.98;;
73951;SDS011;62304;47.662;18.324;2022-09-09T12:01:12;3.93;;;1.73;;
73951;SDS011;62304;47.662;18.324;2022-09-09T12:04:40;3.28;;;1.80;;
73951;SDS011;62304;47.662;18.324;2022-09-09T12:07:57;4.03;;;1.52;;
73951;SDS011;62304;47.662;18.324;2022-09-09T12:11:02;2.65;;;1.30;;
73951;SDS011;62304;47.662;18.324;2022-09-09T12:14:18;2.90;;;1.40;;
73951;SDS011;62304;47.662;18.324;2022-09-09T12:17:46;3.03;;;1.30;;
73951;SDS011;62304;47.662;18.324;2022-09-09T12:25:09;4.00;;;1.80;;
73951;SDS011;62304;47.662;18.324;2022-09-09T12:28:00;2.85;;;1.62;;
73951;SDS011;62304;47.662;18.324;2022-09-09T12:35:35;3.87;;;1.60;;
73951;SDS011;62304;47.662;18.324;2022-09-09T12:38:30;3.35;;;1.90;;
73951;SDS011;62304;47.662;18.324;2022-09-09T12:41:36;2.90;;;1.70;;
73951;SDS011;62304;47.662;18.324;2022-09-09T12:44:50;4.35;;;1.70;;
73951;SDS011;62304;47.662;18.324;2022-09-09T12:48:04;3.62;;;1.80;;
73951;SDS011;62304;47.662;18.324;2022-09-09T12:51:24;3.23;;;1.40;;
73951;SDS011;62304;47.662;18.324;2022-09-09T12:54:34;3.05;;;1.60;;
73951;SDS011;62304;47.662;18.324;2022-09-09T12:57:39;3.90;;;1.60;;
73951;SDS011;62304;47.662;18.324;2022-09-09T13:00:48;2.75;;;1.30;;
73951;SDS011;62304;47.662;18.324;2022-09-09T13:03:54;3.10;;;1.40;;
73951;SDS011;62304;47.662;18.324;2022-09-09T13:07:06;3.03;;;1.50;;
73951;SDS011;62304;47.662;18.324;2022-09-09T13:10:18;3.20;;;1.50;;
73951;SDS011;62304;47.662;18.324;2022-09-09T13:13:38;3.05;;;1.60;;
73951;SDS011;62304;47.662;18.324;2022-09-09T13:16:53;3.70;;;1.70;;
73951;SDS011;62304;47.662;18.324;2022-09-09T13:19:58;3.33;;;1.77;;
73951;SDS011;62304;47.662;18.324;2022-09-09T13:23:01;3.27;;;1.50;;
73951;SDS011;62304;47.662;18.324;2022-09-09T13:26:05;3.47;;;1.37;;
73951;SDS011;62304;47.662;18.324;2022-09-09T13:29:24;4.18;;;1.40;;
73951;SDS011;62304;47.662;18.324;2022-09-09T13:32:27;6.07;;;1.20;;
73951;SDS011;62304;47.662;18.324;2022-09-09T13:35:31;10.07;;;1.90;;
73951;SDS011;62304;47.662;18.324;2022-09-09T13:38:52;4.33;;;1.27;;
73951;SDS011;62304;47.662;18.324;2022-09-09T13:41:57;4.70;;;1.30;;
73951;SDS011;62304;47.662;18.324;2022-09-09T13:45:00;3.53;;;1.62;;
73951;SDS011;62304;47.662;18.324;2022-09-09T13:48:09;2.70;;;1.30;;
73951;SDS011;62304;47.662;18.324;2022-09-09T13:51:50;4.25;;;1.37;;
73951;SDS011;62304;47.662;18.324;2022-09-09T13:54:53;3.87;;;1.40;;
73951;SDS011;62304;47.662;18.324;2022-09-09T13:58:00;5.45;;;1.00;;
73951;SDS011;62304;47.662;18.324;2022-09-09T14:01:05;2.90;;;1.50;;
73951;SDS011;62304;47.662;18.324;2022-09-09T14:04:08;3.10;;;1.25;;
73951;SDS011;62304;47.662;18.324;2022-09-09T14:07:15;2.85;;;1.15;;
73951;SDS011;62304;47.662;18.324;2022-09-09T14:10:20;3.73;;;1.37;;
73951;SDS011;62304;47.662;18.324;2022-09-09T14:13:23;4.00;;;1.30;;
73951;SDS011;62304;47.662;18.324;2022-09-09T14:16:27;3.50;;;1.55;;
73951;SDS011;62304;47.662;18.324;2022-09-09T14:19:30;4.93;;;1.40;;
73951;SDS011;62304;47.662;18.324;2022-09-09T14:22:33;3.10;;;1.30;;
73951;SDS011;62304;47.662;18.324;2022-09-09T14:25:36;4.07;;;1.70;;
73951;SDS011;62304;47.662;18.324;2022-09-09T14:28:43;4.12;;;1.62;;
73951;SDS011;62304;47.662;18.324;2022-09-09T14:31:57;4.30;;;1.58;;
73951;SDS011;62304;47.662;18.324;2022-09-09T14:35:02;3.05;;;1.40;;
73951;SDS011;62304;47.662;18.324;2022-09-09T14:38:05;4.47;;;1.30;;
73951;SDS011;62304;47.662;18.324;2022-09-09T14:41:12;3.00;;;1.20;;
73951;SDS011;62304;47.662;18.324;2022-09-09T14:44:19;3.70;;;1.23;;
73951;SDS011;62304;47.662;18.324;2022-09-09T14:47:22;4.07;;;1.60;;
73951;SDS011;62304;47.662;18.324;2022-09-09T14:50:25;4.10;;;1.30;;
73951;SDS011;62304;47.662;18.324;2022-09-09T14:53:30;3.30;;;1.23;;
73951;SDS011;62304;47.662;18.324;2022-09-09T14:56:33;4.40;;;1.17;;
73951;SDS011;62304;47.662;18.324;2022-09-09T14:59:37;5.15;;;1.30;;
73951;SDS011;62304;47.662;18.324;2022-09-09T15:02:39;3.60;;;1.55;;
73951;SDS011;62304;47.662;18.324;2022-09-09T15:05:42;2.60;;;1.20;;
73951;SDS011;62304;47.662;18.324;2022-09-09T15:08:45;3.95;;;1.23;;
73951;SDS011;62304;47.662;18.324;2022-09-09T15:11:49;5.47;;;1.30;;
73951;SDS011;62304;47.662;18.324;2022-09-09T15:14:51;4.32;;;1.00;;
73951;SDS011;62304;47.662;18.324;2022-09-09T15:17:56;4.00;;;1.15;;
73951;SDS011;62304;47.662;18.324;2022-09-09T15:20:59;3.35;;;1.30;;
73951;SDS011;62304;47.662;18.324;2022-09-09T15:24:05;4.90;;;1.10;;
73951;SDS011;62304;47.662;18.324;2022-09-09T15:27:10;3.77;;;1.07;;
73951;SDS011;62304;47.662;18.324;2022-09-09T15:30:13;4.45;;;1.20;;
73951;SDS011;62304;47.662;18.324;2022-09-09T15:33:16;2.78;;;1.10;;
73951;SDS011;62304;47.662;18.324;2022-09-09T15:36:20;4.55;;;1.20;;
73951;SDS011;62304;47.662;18.324;2022-09-09T15:39:27;4.03;;;1.17;;
73951;SDS011;62304;47.662;18.324;2022-09-09T15:42:30;3.73;;;1.20;;
73951;SDS011;62304;47.662;18.324;2022-09-09T15:45:33;3.15;;;1.10;;
73951;SDS011;62304;47.662;18.324;2022-09-09T15:48:40;4.20;;;1.00;;
73951;SDS011;62304;47.662;18.324;2022-09-09T15:51:47;3.75;;;1.48;;
73951;SDS011;62304;47.662;18.324;2022-09-09T15:54:53;6.03;;;1.48;;
73951;SDS011;62304;47.662;18.324;2022-09-09T15:57:56;3.73;;;1.20;;
73951;SDS011;62304;47.662;18.324;2022-09-09T16:01:03;7.28;;;1.20;;
73951;SDS011;62304;47.662;18.324;2022-09-09T16:04:09;3.00;;;1.20;;
73951;SDS011;62304;47.662;18.324;2022-09-09T16:07:12;4.05;;;1.20;;
73951;SDS011;62304;47.662;18.324;2022-09-09T16:10:16;4.57;;;1.25;;
73951;SDS011;62304;47.662;18.324;2022-09-09T16:13:18;2.67;;;1.03;;
73951;SDS011;62304;47.662;18.324;2022-09-09T16:16:22;3.33;;;1.33;;
73951;SDS011;62304;47.662;18.324;2022-09-09T16:19:26;4.12;;;1.25;;
73951;SDS011;62304;47.662;18.324;2022-09-09T16:22:29;2.90;;;1.12;;
73951;SDS011;62304;47.662;18.324;2022-09-09T16:25:32;4.35;;;1.00;;
73951;SDS011;62304;47.662;18.324;2022-09-09T16:28:35;3.50;;;1.10;;
73951;SDS011;62304;47.662;18.324;2022-09-09T16:31:38;3.78;;;1.10;;
73951;SDS011;62304;47.662;18.324;2022-09-09T16:34:42;4.32;;;1.35;;
73951;SDS011;62304;47.662;18.324;2022-09-09T16:37:45;5.80;;;1.00;;
73951;SDS011;62304;47.662;18.324;2022-09-09T16:40:48;5.22;;;1.30;;
73951;SDS011;62304;47.662;18.324;2022-09-09T16:43:52;4.77;;;1.13;;
73951;SDS011;62304;47.662;18.324;2022-09-09T16:46:56;4.20;;;1.08;;
73951;SDS011;62304;47.662;18.324;2022-09-09T16:50:02;5.22;;;1.05;;
73951;SDS011;62304;47.662;18.324;2022-09-09T16:53:05;3.72;;;1.10;;
73951;SDS011;62304;47.662;18.324;2022-09-09T16:56:15;4.10;;;1.23;;
73951;SDS011;62304;47.662;18.324;2022-09-09T16:59:21;3.10;;;1.20;;
73951;SDS011;62304;47.662;18.324;2022-09-09T17:02:26;5.68;;;1.50;;
73951;SDS011;62304;47.662;18.324;2022-09-09T17:05:29;5.03;;;1.40;;
73951;SDS011;62304;47.662;18.324;2022-09-09T17:08:32;5.93;;;1.95;;
73951;SDS011;62304;47.662;18.324;2022-09-09T17:11:36;11.20;;;3.20;;
73951;SDS011;62304;47.662;18.324;2022-09-09T17:14:40;10.13;;;3.30;;
73951;SDS011;62304;47.662;18.324;2022-09-09T17:17:43;10.73;;;2.90;;
73951;SDS011;62304;47.662;18.324;2022-09-09T17:20:47;9.98;;;2.70;;
73951;SDS011;62304;47.662;18.324;2022-09-09T17:23:53;8.52;;;3.12;;
73951;SDS011;62304;47.662;18.324;2022-09-09T17:26:56;11.10;;;3.40;;
73951;SDS011;62304;47.662;18.324;2022-09-09T17:29:59;9.82;;;3.30;;
73951;SDS011;62304;47.662;18.324;2022-09-09T17:33:03;4.82;;;2.15;;
73951;SDS011;62304;47.662;18.324;2022-09-09T17:36:08;6.22;;;2.28;;
73951;SDS011;62304;47.662;18.324;2022-09-09T17:39:13;6.32;;;1.90;;
73951;SDS011;62304;47.662;18.324;2022-09-09T17:42:16;7.00;;;2.00;;
73951;SDS011;62304;47.662;18.324;2022-09-09T17:45:20;7.57;;;2.37;;
73951;SDS011;62304;47.662;18.324;2022-09-09T17:48:23;7.57;;;2.30;;
73951;SDS011;62304;47.662;18.324;2022-09-09T17:51:27;7.43;;;2.40;;
73951;SDS011;62304;47.662;18.324;2022-09-09T17:54:32;4.85;;;2.10;;
73951;SDS011;62304;47.662;18.324;2022-09-09T17:57:35;9.10;;;2.13;;
73951;SDS011;62304;47.662;18.324;2022-09-09T18:00:38;7.97;;;2.00;;
73951;SDS011;62304;47.662;18.324;2022-09-09T18:03:45;7.68;;;2.10;;
73951;SDS011;62304;47.662;18.324;2022-09-09T18:06:50;7.60;;;2.50;;
73951;SDS011;62304;47.662;18.324;2022-09-09T18:09:55;7.32;;;2.72;;
73951;SDS011;62304;47.662;18.324;2022-09-09T18:12:58;6.53;;;2.20;;
73951;SDS011;62304;47.662;18.324;2022-09-09T18:16:06;6.00;;;2.10;;
73951;SDS011;62304;47.662;18.324;2022-09-09T18:19:11;6.78;;;2.05;;
73951;SDS011;62304;47.662;18.324;2022-09-09T18:22:16;7.87;;;1.97;;
73951;SDS011;62304;47.662;18.324;2022-09-09T18:25:21;5.30;;;2.00;;
73951;SDS011;62304;47.662;18.324;2022-09-09T18:28:27;4.78;;;2.00;;
73951;SDS011;62304;47.662;18.324;2022-09-09T18:31:31;6.65;;;2.20;;
73951;SDS011;62304;47.662;18.324;2022-09-09T18:34:35;6.12;;;2.20;;
73951;SDS011;62304;47.662;18.324;2022-09-09T18:37:39;5.30;;;2.33;;
73951;SDS011;62304;47.662;18.324;2022-09-09T18:40:42;5.43;;;1.92;;
73951;SDS011;62304;47.662;18.324;2022-09-09T18:43:45;5.35;;;2.00;;
73951;SDS011;62304;47.662;18.324;2022-09-09T18:46:50;4.12;;;1.83;;
73951;SDS011;62304;47.662;18.324;2022-09-09T18:49:54;7.95;;;2.10;;
73951;SDS011;62304;47.662;18.324;2022-09-09T18:52:58;6.63;;;2.17;;
73951;SDS011;62304;47.662;18.324;2022-09-09T18:56:05;5.53;;;2.20;;
73951;SDS011;62304;47.662;18.324;2022-09-09T18:59:12;4.45;;;2.00;;
73951;SDS011;62304;47.662;18.324;2022-09-09T19:02:20;7.55;;;4.10;;
73951;SDS011;62304;47.662;18.324;2022-09-09T19:05:25;7.53;;;3.65;;
73951;SDS011;62304;47.662;18.324;2022-09-09T19:08:28;6.70;;;2.60;;
73951;SDS011;62304;47.662;18.324;2022-09-09T19:11:32;7.68;;;2.85;;
73951;SDS011;62304;47.662;18.324;2022-09-09T19:14:36;5.00;;;2.37;;
73951;SDS011;62304;47.662;18.324;2022-09-09T19:17:39;5.82;;;2.50;;
73951;SDS011;62304;47.662;18.324;2022-09-09T19:20:42;6.97;;;2.25;;
73951;SDS011;62304;47.662;18.324;2022-09-09T19:23:45;7.53;;;2.97;;
73951;SDS011;62304;47.662;18.324;2022-09-09T19:26:51;6.47;;;2.37;;
73951;SDS011;62304;47.662;18.324;2022-09-09T19:29:56;6.03;;;2.35;;
73951;SDS011;62304;47.662;18.324;2022-09-09T19:32:59;7.70;;;2.83;;
73951;SDS011;62304;47.662;18.324;2022-09-09T19:36:04;5.10;;;2.28;;
73951;SDS011;62304;47.662;18.324;2022-09-09T19:39:09;6.10;;;3.10;;
73951;SDS011;62304;47.662;18.324;2022-09-09T19:42:12;4.95;;;2.42;;
73951;SDS011;62304;47.662;18.324;2022-09-09T19:45:15;5.53;;;2.65;;
73951;SDS011;62304;47.662;18.324;2022-09-09T19:48:22;7.07;;;2.28;;
73951;SDS011;62304;47.662;18.324;2022-09-09T19:51:28;5.53;;;2.35;;
73951;SDS011;62304;47.662;18.324;2022-09-09T19:54:34;6.40;;;2.00;;
73951;SDS011;62304;47.662;18.324;2022-09-09T19:57:37;4.37;;;1.98;;
73951;SDS011;62304;47.662;18.324;2022-09-09T20:00:44;3.60;;;1.90;;
73951;SDS011;62304;47.662;18.324;2022-09-09T20:03:48;4.65;;;1.98;;
73951;SDS011;62304;47.662;18.324;2022-09-09T20:06:54;3.87;;;1.60;;
73951;SDS011;62304;47.662;18.324;2022-09-09T20:09:57;4.40;;;2.30;;
73951;SDS011;62304;47.662;18.324;2022-09-09T20:12:59;6.50;;;1.90;;
73951;SDS011;62304;47.662;18.324;2022-09-09T20:16:04;8.60;;;2.20;;
73951;SDS011;62304;47.662;18.324;2022-09-09T20:19:09;4.90;;;2.10;;
73951;SDS011;62304;47.662;18.324;2022-09-09T20:22:14;6.85;;;2.53;;
73951;SDS011;62304;47.662;18.324;2022-09-09T20:25:18;5.23;;;1.87;;
73951;SDS011;62304;47.662;18.324;2022-09-09T20:28:28;6.43;;;2.05;;
73951;SDS011;62304;47.662;18.324;2022-09-09T20:31:32;5.47;;;2.00;;
73951;SDS011;62304;47.662;18.324;2022-09-09T20:34:38;4.70;;;2.00;;